YYZ weather

Lester B. Pearson International Airport
Toronto, Ontario, Canada

Public forecast

Using degrees Celsius for public forecast. Weather courtesy of forecast.io.

Current aviation weather report (METAR) for Lester B. Pearson International Airport

Retrieved 2019/10/13 19:00 UTC (40 minutes ago):

CYYZ 131900Z 17018G24KT 15SM FEW040 FEW150 SCT250 16/04 A2981 RMK CF1AC1CI2 AC TR SLP099 DENSITY ALT 1000FT

Aviation forecast (TAF) for Lester B. Pearson International Airport

Retrieved 2019/10/13 21:40 UTC (0 seconds ago):

TAF CYYZ 132038Z 1321/1424 18020G30KT P6SM FEW040 SCT240 BECMG 1321/1323 21018G28KT FM140000 22015KT P6SM FEW060 FM140300 24015KT P6SM SCT070 BKN110 TEMPO 1403/1409 P6SM -SHRA BKN070 FM140900 27012G22KT P6SM BKN060 TEMPO 1409/1412 P6SM -SHRA FM141200 28010G20KT P6SM SCT025 BKN040 FM141500 27015G25KT P6SM BKN040 RMK NXT FCST BY 140000Z